Aeroporto :
LOGIN :

Iscrizione | Disclaimer

   EN    FR    IT 

 










Sommario :    VFR   VFR Marginale   IFR   IFR Intensivo   IFR Molto Intensivo
Visibilità : 
Base nubi : 
>= 8 km
>= 3000ft
5 / 8 km
1000 / 3000 ft
1500m / 5 km
500 / 1000 ft
800 / 1500m
200 / 500 ft
< 800m
< 200 ft
Simboli :   Temporali  Nebbia  Neve Forte  Precipitazioni Forti  Vento > 20 kt
SIGMETs :   Varie  Temporali  Ghiacco  Turbolenza  Onda orograficha  Ceneri Vulcaniche






- Altitudine del aeroporto : 1302 ft
- Codice IATA : GNB


LFLS - Grenoble / St. Geoirs

ULTIMO METAR :
  • 180330Z AUTO 06003KT 9999 BKN062/// BKN074/// BKN086/// ///TCU 13/12 Q1015 TEMPO BKN010

METARs OBSOLETI :
  • 180300Z AUTO 08004KT 040V110 9999 BKN070 12/12 Q1015 TEMPO BKN010
  • 180230Z AUTO 12004KT 080V160 9999 OVC070 13/12 Q1015
  • 180200Z AUTO 08003KT 9999 FEW058 OVC070 13/12 Q1015
  • 180130Z AUTO 09004KT 9999 OVC068 13/12 Q1015
  • 180100Z AUTO 08006KT 9000 BKN070 OVC084 13/12 Q1016

TAF TAF LFLS
Valido dal 18 a 03 ore il 19 a 03 ore UTC


180200Z 1803/1903 09006KT 9999 BKN045
PROB40
TEMPO 1803/1809 -RA BKN010
TEMPO 1811/1819 22010KT 4000 -SHRA SCT045TCU
TEMPO 1812/1815 -RA BKN060
BECMG 1901/1903 23013KT
ATIS : +33 4 76 65 55 89



MetMap, La meteo Aeronautica in un colpo d'occhio ! - Copyright ORBIFLY Dicembre 2007 - Disclaimer

ORBIFLY MET'MAP TEAM :

Programmazione e sviluppo : Alexandra Zaïnal
Concezione e sviluppo : Baudouin d'Aumeries
Co-Programmazione e sviluppo : Marc-Olivier Méhu
Supporto tecnico e logistico : Manuel Goepfert
Aiuto per la traduzione : Arnaldo La Scala

Contatto : metmap@orbifly.com




FONTI E CREDITI :

   NOAA